Time;durP1;ratioP1;P1;durP2;ratioP2;P2;SDS_P1;SDS_P2;PMS_P1;PMS_P2;Temp;Humidity;BMP_temperature;BMP_pressure;BME280_temperature;BME280_humidity;BME280_pressure;Samples;Min_cycle;Max_cycle;Signal;HPM_P1;HPM_P2
2022/10/12 00:01:09;;;;;;;17.20;13.80;;;;;;;2.88;96.08;98850.05;107210;1287;22154;-94
2022/10/12 00:03:37;;;;;;;20.30;16.10;;;;;;;2.87;96.11;98850.67;107059;1287;22150;-90
2022/10/12 00:06:13;;;;;;;22.10;16.60;;;;;;;2.91;96.83;98852.45;106888;1309;22154;-94
2022/10/12 00:08:43;;;;;;;22.50;16.50;;;;;;;2.94;96.50;98852.98;106805;1296;22610;-92
2022/10/12 00:11:16;;;;;;;19.20;14.90;;;;;;;2.96;96.15;98851.80;106862;1310;22107;-91
2022/10/12 00:13:43;;;;;;;20.50;13.80;;;;;;;2.99;96.53;98853.84;106982;1300;22177;-91
2022/10/12 00:16:13;;;;;;;15.70;12.90;;;;;;;3.02;96.77;98857.08;106837;1310;22180;-91
2022/10/12 00:18:42;;;;;;;17.10;12.10;;;;;;;2.99;96.45;98853.10;107103;1297;22305;-91
2022/10/12 00:21:15;;;;;;;16.10;13.00;;;;;;;2.98;96.74;98858.52;106853;1310;22832;-91
2022/10/12 00:23:44;;;;;;;17.90;13.10;;;;;;;2.94;96.63;98858.56;107094;1290;22126;-91
2022/10/12 00:26:22;;;;;;;14.90;12.80;;;;;;;2.88;96.91;98855.54;107065;1298;22189;-89
2022/10/12 00:28:58;;;;;;;16.60;12.10;;;;;;;2.84;96.95;98853.14;107163;1286;22784;-93
2022/10/12 00:31:28;;;;;;;20.50;18.40;;;;;;;2.81;96.82;98855.02;106927;1303;22312;-90
2022/10/12 00:34:00;;;;;;;28.70;23.50;;;;;;;2.81;96.86;98859.35;106893;1309;22098;-90
2022/10/12 00:36:31;;;;;;;17.00;13.70;;;;;;;2.80;96.83;98858.88;106966;1282;22170;-92
2022/10/12 00:39:00;;;;;;;16.50;13.00;;;;;;;2.74;97.13;98853.98;106884;1297;22071;-92
2022/10/12 00:41:32;;;;;;;16.30;12.10;;;;;;;2.71;97.38;98855.87;106754;1309;22071;-90
2022/10/12 00:44:00;;;;;;;15.60;12.30;;;;;;;2.70;97.25;98853.35;106675;1297;22179;-94
2022/10/12 00:46:33;;;;;;;12.80;11.40;;;;;;;2.70;97.05;98853.25;107025;1297;22141;-90
2022/10/12 00:49:19;;;;;;;19.20;14.90;;;;;;;2.74;96.97;98853.63;107138;1302;22853;-92
2022/10/12 00:51:52;;;;;;;14.90;12.80;;;;;;;2.82;96.75;98852.45;107105;1303;22156;-91
2022/10/12 00:54:26;;;;;;;21.30;13.60;;;;;;;2.90;96.26;98855.06;106827;1310;22194;-93
2022/10/12 00:56:55;;;;;;;16.20;13.30;;;;;;;2.93;96.07;98856.89;106728;1310;22858;-93
2022/10/12 00:59:31;;;;;;;15.40;13.80;;;;;;;2.94;95.80;98857.88;106754;1309;22185;-91
2022/10/12 01:01:59;;;;;;;17.60;14.00;;;;;;;2.88;95.90;98855.33;106730;1309;22863;-91
2022/10/12 01:04:30;;;;;;;19.20;12.50;;;;;;;2.84;96.35;98851.53;107173;1291;22061;-92
2022/10/12 01:06:59;;;;;;;16.70;12.50;;;;;;;2.81;96.69;98849.86;106782;1300;22974;-91
2022/10/12 01:09:28;;;;;;;56.10;41.60;;;;;;;2.80;96.83;98852.40;106815;1310;22677;-87
2022/10/12 01:11:57;;;;;;;16.80;14.70;;;;;;;2.79;96.61;98851.92;106905;1308;22230;-90
2022/10/12 01:14:25;;;;;;;17.90;14.10;;;;;;;2.79;96.51;98848.41;107047;1291;22782;-92
2022/10/12 01:16:58;;;;;;;17.10;12.10;;;;;;;2.79;96.87;98851.60;106890;1309;22926;-93
2022/10/12 01:20:07;;;;;;;18.60;11.60;;;;;;;2.79;97.25;98846.08;107173;1301;22061;-89
2022/10/12 01:23:03;;;;;;;14.50;10.80;;;;;;;2.77;97.31;98848.52;107107;1301;22085;-93
2022/10/12 01:25:51;;;;;;;16.40;11.10;;;;;;;2.79;97.59;98849.59;107076;1288;23294;-93
2022/10/12 01:28:50;;;;;;;13.90;11.60;;;;;;;2.85;97.72;98844.32;106826;1309;22167;-91
2022/10/12 01:31:48;;;;;;;13.90;10.50;;;;;;;2.83;97.70;98844.71;106838;1308;22734;-88
2022/10/12 01:34:41;;;;;;;13.00;9.90;;;;;;;2.82;97.80;98844.34;107145;1293;22152;-91
2022/10/12 01:37:37;;;;;;;15.20;11.20;;;;;;;2.83;97.88;98843.95;106770;1304;22189;-91
2022/10/12 01:40:15;;;;;;;12.40;10.20;;;;;;;2.80;97.84;98839.30;106748;1309;22720;-93
2022/10/12 01:42:43;;;;;;;13.20;9.60;;;;;;;2.82;98.47;98842.48;106679;1309;22227;-89
2022/10/12 01:45:15;;;;;;;13.30;9.70;;;;;;;2.81;98.47;98844.05;106750;1309;22119;-93
2022/10/12 01:47:53;;;;;;;12.10;9.40;;;;;;;2.75;98.22;98840.55;106713;1309;22229;-92
2022/10/12 01:50:30;;;;;;;11.80;9.40;;;;;;;2.75;98.31;98841.30;107044;1288;22152;-93
2022/10/12 01:53:21;;;;;;;16.00;10.10;;;;;;;2.74;98.33;98841.63;106813;1309;22966;-92
2022/10/12 01:56:37;;;;;;;13.20;8.50;;;;;;;2.70;98.16;98847.49;106752;1309;22214;-92
2022/10/12 01:59:11;;;;;;;;;;;;;;;2.70;98.11;98845.84;107003;1302;22361;-93
2022/10/12 02:01:47;;;;;;;14.90;10.20;;;;;;;2.71;98.22;98843.59;107057;1302;22154;-91
2022/10/12 02:04:43;;;;;;;13.80;8.50;;;;;;;2.71;98.24;98843.63;106727;1309;22175;-92
2022/10/12 02:07:25;;;;;;;12.30;9.10;;;;;;;2.73;98.16;98846.98;106698;1309;22185;-92
2022/10/12 02:09:57;;;;;;;13.10;8.40;;;;;;;2.77;98.72;98845.61;106675;1306;22171;-92
2022/10/12 02:12:29;;;;;;;12.30;8.40;;;;;;;2.79;98.54;98844.11;106708;1309;22224;-91
2022/10/12 02:15:02;;;;;;;12.70;8.90;;;;;;;2.80;98.62;98843.56;106786;1309;22728;-92
2022/10/12 02:17:32;;;;;;;13.60;9.20;;;;;;;2.81;98.93;98839.69;106649;1309;22093;-92
2022/10/12 02:20:02;;;;;;;12.90;9.30;;;;;;;2.78;98.60;98842.70;107003;1288;22080;-92
2022/10/12 02:22:36;;;;;;;13.50;9.30;;;;;;;2.70;98.75;98842.13;106699;1304;22180;-93
2022/10/12 02:25:09;;;;;;;14.00;8.60;;;;;;;2.66;97.88;98839.12;106841;1294;22164;-85
2022/10/12 02:27:42;;;;;;;12.40;9.30;;;;;;;2.63;97.60;98842.30;107029;1302;21970;-91
2022/10/12 02:30:10;;;;;;;15.60;9.40;;;;;;;2.69;97.98;98846.94;106722;1304;22174;-92
2022/10/12 02:33:02;;;;;;;12.90;8.80;;;;;;;2.73;98.37;98843.90;106604;1309;22068;-93
2022/10/12 02:35:40;;;;;;;12.30;9.10;;;;;;;2.72;97.73;98844.30;106843;1310;22912;-89
2022/10/12 02:38:19;;;;;;;15.30;9.50;;;;;;;2.70;97.88;98840.04;107172;1303;22206;-88
2022/10/12 02:40:56;;;;;;;16.20;8.50;;;;;;;2.71;97.82;98845.35;107114;1303;21952;-85
2022/10/12 02:43:33;;;;;;;12.20;8.30;;;;;;;2.73;97.63;98850.19;107019;1303;21878;-89
2022/10/12 02:46:04;;;;;;;14.70;8.60;;;;;;;2.75;97.20;98848.42;107003;1312;21995;-90
2022/10/12 02:48:34;;;;;;;14.60;9.60;;;;;;;2.74;97.33;98843.92;107032;1303;22203;-91
2022/10/12 02:51:02;;;;;;;14.60;12.20;;;;;;;2.77;97.27;98848.53;106895;1303;22090;-91
2022/10/12 02:53:30;;;;;;;11.90;10.20;;;;;;;2.77;97.53;98848.64;107064;1283;22157;-91
2022/10/12 02:56:02;;;;;;;33.40;9.20;;;;;;;2.74;97.46;98848.84;106844;1309;22205;-91
2022/10/12 02:58:30;;;;;;;10.90;7.90;;;;;;;2.70;97.45;98847.45;106818;1310;22177;-91
2022/10/12 03:00:58;;;;;;;13.70;7.80;;;;;;;2.65;97.39;98846.83;107085;1287;22169;-92
2022/10/12 03:03:26;;;;;;;11.50;6.60;;;;;;;2.61;97.58;98856.25;106786;1309;22092;-91
2022/10/12 03:05:55;;;;;;;12.30;9.00;;;;;;;2.55;97.66;98855.95;107087;1288;22178;-86
2022/10/12 03:08:23;;;;;;;12.10;10.00;;;;;;;2.52;97.11;98853.48;107202;1294;22079;-93
2022/10/12 03:10:51;;;;;;;11.40;8.60;;;;;;;2.52;96.98;98854.70;106835;1289;23076;-91
2022/10/12 03:13:18;;;;;;;10.30;7.10;;;;;;;2.52;97.25;98850.14;106780;1309;22179;-92
2022/10/12 03:15:46;;;;;;;11.20;8.50;;;;;;;2.52;97.40;98857.17;106700;1310;22176;-91
2022/10/12 03:18:14;;;;;;;19.30;15.00;;;;;;;2.47;96.94;98852.16;106776;1310;22177;-87
2022/10/12 03:20:47;;;;;;;11.50;7.80;;;;;;;2.43;97.22;98849.17;106776;1309;22225;-91
2022/10/12 03:23:14;;;;;;;8.10;6.40;;;;;;;2.44;97.13;98841.87;106842;1309;22185;-89
2022/10/12 03:25:42;;;;;;;9.40;6.90;;;;;;;2.44;96.82;98845.98;106826;1309;22190;-91
2022/10/12 03:28:10;;;;;;;10.60;8.70;;;;;;;2.46;97.02;98849.70;107057;1294;22162;-92
2022/10/12 03:30:39;;;;;;;10.60;8.20;;;;;;;2.53;97.20;98845.10;106858;1309;22212;-92
2022/10/12 03:33:06;;;;;;;10.10;8.10;;;;;;;2.53;97.13;98844.27;107031;1294;23282;-91
2022/10/12 03:35:34;;;;;;;27.80;25.10;;;;;;;2.49;96.98;98845.09;107104;1288;22193;-89
2022/10/12 03:38:02;;;;;;;16.90;12.80;;;;;;;2.48;96.79;98845.39;106835;1309;22181;-92
2022/10/12 03:40:30;;;;;;;11.20;8.40;;;;;;;2.47;96.74;98843.92;106785;1306;22184;-87
2022/10/12 03:42:58;;;;;;;11.90;7.30;;;;;;;2.45;96.93;98845.27;106844;1309;22221;-93
2022/10/12 03:45:26;;;;;;;13.40;8.10;;;;;;;2.45;97.39;98840.02;106924;1283;22064;-90
2022/10/12 03:47:54;;;;;;;10.40;7.70;;;;;;;2.44;97.41;98844.86;106913;1309;22168;-91
2022/10/12 03:50:22;;;;;;;9.60;8.00;;;;;;;2.43;96.94;98844.34;106909;1304;22156;-91
2022/10/12 03:52:50;;;;;;;12.60;9.00;;;;;;;2.41;97.07;98845.71;106923;1309;22059;-90
2022/10/12 03:55:18;;;;;;;10.80;8.00;;;;;;;2.42;96.99;98843.87;107042;1291;22158;-88
2022/10/12 03:57:46;;;;;;;11.80;7.70;;;;;;;2.45;96.95;98846.21;106801;1310;22764;-91
2022/10/12 04:00:14;;;;;;;12.30;8.20;;;;;;;2.48;96.89;98848.63;107104;1302;22165;-92
2022/10/12 04:02:42;;;;;;;11.60;7.40;;;;;;;2.56;97.11;98853.23;106781;1309;22154;-91
2022/10/12 04:05:10;;;;;;;10.50;7.70;;;;;;;2.61;97.26;98857.36;106943;1309;22252;-89
2022/10/12 04:07:38;;;;;;;11.50;9.70;;;;;;;2.62;97.03;98858.77;107113;1291;22162;-89
2022/10/12 04:10:07;;;;;;;29.70;27.00;;;;;;;2.46;96.74;98856.99;106843;1309;22654;-91
2022/10/12 04:12:34;;;;;;;22.80;20.40;;;;;;;2.34;96.68;98856.89;106858;1304;22170;-89
2022/10/12 04:15:03;;;;;;;14.20;11.60;;;;;;;2.29;96.86;98854.67;107089;1290;22812;-92
2022/10/12 04:17:31;;;;;;;12.40;7.60;;;;;;;2.29;97.05;98858.79;106904;1309;22175;-92
2022/10/12 04:19:59;;;;;;;9.30;6.30;;;;;;;2.25;97.51;98857.66;106741;1314;21866;-94
2022/10/12 04:22:27;;;;;;;11.00;6.10;;;;;;;2.20;97.58;98856.05;107068;1290;22249;-91
2022/10/12 04:24:54;;;;;;;9.10;5.70;;;;;;;2.15;97.77;98855.91;107096;1302;22157;-89
2022/10/12 04:27:22;;;;;;;13.40;11.20;;;;;;;2.12;97.64;98854.70;106761;1309;22194;-91
2022/10/12 04:29:50;;;;;;;22.80;20.50;;;;;;;2.13;97.85;98853.79;107128;1302;22062;-93
2022/10/12 04:32:18;;;;;;;11.60;8.80;;;;;;;2.17;98.05;98850.61;106929;1303;22255;-89
2022/10/12 04:34:46;;;;;;;20.60;12.30;;;;;;;2.21;97.94;98851.30;106812;1309;22089;-89
2022/10/12 04:37:14;;;;;;;15.20;9.60;;;;;;;2.22;98.28;98854.30;107123;1287;22165;-89
2022/10/12 04:39:41;;;;;;;11.30;7.60;;;;;;;2.19;98.56;98850.63;106856;1311;22304;-89
2022/10/12 04:42:09;;;;;;;12.20;8.20;;;;;;;2.20;98.44;98856.74;106887;1309;22189;-89
2022/10/12 04:44:37;;;;;;;11.50;7.30;;;;;;;2.22;98.94;98855.45;106911;1300;22103;-91
2022/10/12 04:47:05;;;;;;;11.20;6.80;;;;;;;2.26;98.93;98857.21;106980;1302;22096;-92
2022/10/12 04:49:33;;;;;;;13.00;7.30;;;;;;;2.32;99.29;98854.23;107122;1284;22184;-90
2022/10/12 04:52:01;;;;;;;10.60;7.60;;;;;;;2.34;98.93;98857.91;106828;1310;22157;-92
2022/10/12 04:54:31;;;;;;;15.40;8.60;;;;;;;2.35;99.10;98854.95;107183;1302;22118;-91
2022/10/12 04:56:59;;;;;;;13.00;10.60;;;;;;;2.38;98.99;98855.75;107139;1297;22047;-89
2022/10/12 04:59:27;;;;;;;26.90;21.20;;;;;;;2.46;98.62;98855.98;106934;1309;22161;-91
2022/10/12 05:01:55;;;;;;;18.40;16.70;;;;;;;2.49;98.14;98859.14;107186;1302;22167;-90
2022/10/12 05:04:23;;;;;;;15.90;13.60;;;;;;;2.50;97.95;98857.11;106937;1307;22253;-89
2022/10/12 05:06:51;;;;;;;11.40;9.50;;;;;;;2.48;98.39;98863.48;106926;1309;22243;-92
2022/10/12 05:09:19;;;;;;;11.10;9.10;;;;;;;2.43;98.62;98867.91;106954;1309;22097;-92
2022/10/12 05:11:47;;;;;;;17.80;11.80;;;;;;;2.42;98.46;98871.40;107196;1298;22151;-89
2022/10/12 05:14:15;;;;;;;18.20;16.30;;;;;;;2.43;98.34;98871.52;107173;1284;22877;-90
2022/10/12 05:16:42;;;;;;;12.60;9.80;;;;;;;2.45;98.01;98875.33;106941;1309;22195;-91
2022/10/12 05:19:10;;;;;;;14.40;10.10;;;;;;;2.48;97.65;98878.54;107111;1303;22169;-93
2022/10/12 05:21:39;;;;;;;12.80;11.00;;;;;;;2.48;97.57;98875.71;107235;1302;22165;-92
2022/10/12 05:24:07;;;;;;;13.90;9.20;;;;;;;2.42;97.80;98879.10;106921;1301;22208;-92
2022/10/12 05:26:35;;;;;;;12.40;10.20;;;;;;;2.38;97.85;98881.89;107124;1294;22196;-90
2022/10/12 05:29:03;;;;;;;15.30;9.70;;;;;;;2.43;98.16;98879.95;106883;1303;22943;-91
2022/10/12 05:31:30;;;;;;;11.70;7.70;;;;;;;2.52;98.02;98883.64;107185;1287;22197;-91
2022/10/12 05:33:59;;;;;;;13.10;7.50;;;;;;;2.63;98.07;98881.48;107203;1284;22949;-90
2022/10/12 05:36:26;;;;;;;13.40;8.60;;;;;;;2.70;98.05;98884.26;106976;1309;22174;-89
2022/10/12 05:38:54;;;;;;;14.00;8.80;;;;;;;2.76;97.77;98882.10;106916;1295;22226;-87
2022/10/12 05:41:22;;;;;;;30.20;26.80;;;;;;;2.83;98.07;98882.83;106864;1312;22140;-89
2022/10/12 05:43:52;;;;;;;20.40;17.90;;;;;;;2.87;97.89;98882.34;107217;1285;22160;-91
2022/10/12 05:46:20;;;;;;;25.20;20.30;;;;;;;2.85;98.12;98885.91;106952;1312;22116;-90
2022/10/12 05:48:48;;;;;;;19.50;11.20;;;;;;;2.85;98.10;98876.41;106930;1312;22208;-90
2022/10/12 05:51:16;;;;;;;17.70;12.70;;;;;;;2.99;98.13;98879.34;106886;1309;22837;-89
2022/10/12 05:53:44;;;;;;;18.50;14.40;;;;;;;3.11;98.27;98880.83;106881;1310;22286;-92
2022/10/12 05:56:12;;;;;;;21.80;15.40;;;;;;;3.25;98.72;98882.64;107112;1302;22061;-91
2022/10/12 05:58:39;;;;;;;18.10;14.90;;;;;;;3.39;98.67;98883.39;106821;1303;22194;-91
2022/10/12 06:01:12;;;;;;;14.10;10.20;;;;;;;3.49;98.63;98882.79;106804;1305;22928;-91
2022/10/12 06:03:41;;;;;;;16.60;14.00;;;;;;;3.59;98.40;98883.84;106826;1309;22294;-93
2022/10/12 06:06:09;;;;;;;25.80;20.20;;;;;;;3.68;98.12;98888.38;107043;1293;23223;-92
2022/10/12 06:08:36;;;;;;;31.10;21.20;;;;;;;3.81;98.36;98889.48;107078;1302;22053;-93
2022/10/12 06:11:04;;;;;;;31.20;21.10;;;;;;;3.95;98.29;98894.77;106839;1305;22937;-89
2022/10/12 06:13:32;;;;;;;23.10;19.80;;;;;;;4.06;98.24;98889.32;106995;1303;22123;-94
2022/10/12 06:16:00;;;;;;;24.80;21.10;;;;;;;4.15;98.27;98894.04;106840;1309;22161;-92
2022/10/12 06:18:28;;;;;;;27.00;20.00;;;;;;;4.24;98.43;98891.16;106730;1312;22346;-93
2022/10/12 06:20:56;;;;;;;28.30;19.90;;;;;;;4.35;98.35;98893.97;106844;1312;22191;-93
2022/10/12 06:23:44;;;;;;;30.70;20.70;;;;;;;4.49;98.18;98895.45;107106;1286;22154;-92
2022/10/12 06:26:15;;;;;;;32.00;23.60;;;;;;;4.63;97.93;98895.94;106862;1309;22085;-90
2022/10/12 06:28:43;;;;;;;45.40;26.30;;;;;;;4.74;98.19;98896.70;106737;1312;22178;-93
2022/10/12 06:31:11;;;;;;;36.00;32.10;;;;;;;4.84;98.26;98894.25;106852;1309;22166;-93
2022/10/12 06:33:39;;;;;;;37.40;33.10;;;;;;;4.94;98.11;98900.95;106824;1312;22885;-92
2022/10/12 06:36:07;;;;;;;44.90;36.70;;;;;;;5.06;98.30;98900.17;106833;1309;22176;-92
2022/10/12 06:38:35;;;;;;;36.90;32.90;;;;;;;5.20;98.39;98899.52;106942;1300;21865;-87
2022/10/12 06:41:03;;;;;;;40.70;34.50;;;;;;;5.36;98.25;98898.96;106875;1303;22256;-92
2022/10/12 06:43:31;;;;;;;44.30;34.60;;;;;;;5.52;98.55;98899.02;106890;1303;22076;-93
2022/10/12 06:46:26;;;;;;;46.30;36.20;;;;;;;5.70;98.63;98897.98;106940;1286;22091;-93
2022/10/12 06:48:54;;;;;;;46.20;37.40;;;;;;;5.84;98.30;98898.16;107246;1287;22075;-93
2022/10/12 06:51:22;;;;;;;50.30;36.60;;;;;;;5.92;98.19;98899.77;107217;1293;22079;-93
2022/10/12 06:53:54;;;;;;;43.90;34.80;;;;;;;6.04;98.29;98899.57;107108;1302;22186;-91
2022/10/12 06:56:22;;;;;;;52.70;47.10;;;;;;;6.18;98.24;98899.91;106973;1303;22190;-93
2022/10/12 06:58:54;;;;;;;50.10;44.80;;;;;;;6.32;98.09;98900.42;107053;1293;22048;-92
2022/10/12 07:01:22;;;;;;;46.50;41.60;;;;;;;6.41;97.81;98898.66;106959;1303;22232;-92
2022/10/12 07:03:56;;;;;;;42.40;37.20;;;;;;;6.51;98.17;98899.39;107204;1294;22139;-87
2022/10/12 07:06:27;;;;;;;38.60;31.30;;;;;;;6.60;98.09;98901.50;106918;1308;22218;-92
2022/10/12 07:09:00;;;;;;;36.70;30.50;;;;;;;6.66;97.96;98904.42;106815;1310;22108;-92
2022/10/12 07:11:27;;;;;;;36.20;29.70;;;;;;;6.76;97.99;98902.88;106719;1310;22077;-92
2022/10/12 07:13:56;;;;;;;34.20;30.60;;;;;;;6.89;98.08;98908.23;106751;1310;22165;-92
2022/10/12 07:16:24;;;;;;;35.70;31.10;;;;;;;6.99;97.93;98906.69;106725;1312;22706;-92
2022/10/12 07:18:52;;;;;;;36.40;32.80;;;;;;;7.08;97.67;98905.98;106717;1312;22198;-93
2022/10/12 07:21:20;;;;;;;39.60;35.50;;;;;;;7.17;97.94;98906.52;106626;1311;22908;-92
2022/10/12 07:23:48;;;;;;;45.90;41.00;;;;;;;7.25;98.00;98904.04;106713;1312;22248;-92
2022/10/12 07:26:16;;;;;;;47.10;42.50;;;;;;;7.34;97.74;98899.94;106862;1307;22200;-92
2022/10/12 07:28:44;;;;;;;48.00;43.40;;;;;;;7.44;97.31;98899.34;106868;1305;22200;-91
2022/10/12 07:31:12;;;;;;;44.10;39.90;;;;;;;7.54;97.28;98897.92;107082;1306;22147;-92
2022/10/12 07:33:40;;;;;;;48.20;40.50;;;;;;;7.60;97.52;98900.45;106761;1310;22866;-94
2022/10/12 07:36:08;;;;;;;45.40;38.70;;;;;;;7.69;97.42;98898.98;107004;1302;22176;-91
2022/10/12 07:38:45;;;;;;;45.10;38.70;;;;;;;7.80;97.14;98900.41;107058;1300;22703;-94
2022/10/12 07:41:14;;;;;;;41.10;36.80;;;;;;;7.91;97.21;98896.20;107156;1305;22136;-91
2022/10/12 07:43:42;;;;;;;46.10;35.50;;;;;;;8.08;97.41;98890.91;107130;1306;22283;-92
2022/10/12 07:46:11;;;;;;;36.50;28.50;;;;;;;8.26;97.45;98898.06;107099;1305;22028;-92
2022/10/12 07:48:40;;;;;;;30.50;23.40;;;;;;;8.38;96.87;98895.59;106880;1310;22105;-92
2022/10/12 07:51:16;;;;;;;31.40;20.30;;;;;;;8.52;97.15;98895.61;107022;1300;22107;-92
2022/10/12 07:53:44;;;;;;;28.60;21.90;;;;;;;8.66;97.16;98894.56;106954;1310;22088;-94
2022/10/12 07:56:16;;;;;;;23.40;20.20;;;;;;;8.83;96.92;98888.02;107002;1310;22181;-83
2022/10/12 07:58:48;;;;;;;24.10;20.60;;;;;;;9.02;97.15;98889.86;107126;1290;21806;-85
2022/10/12 08:01:18;;;;;;;23.70;21.20;;;;;;;9.20;96.85;98887.77;107052;1303;22037;-92
2022/10/12 08:03:49;;;;;;;23.00;20.60;;;;;;;9.36;96.57;98883.17;107017;1309;22107;-93
2022/10/12 08:06:23;;;;;;;26.40;19.10;;;;;;;9.50;96.49;98886.85;107132;1306;22157;-92
2022/10/12 08:08:51;;;;;;;24.40;17.60;;;;;;;9.66;96.32;98885.48;106716;1310;22878;-93
2022/10/12 08:11:19;;;;;;;27.30;14.60;;;;;;;9.81;96.44;98887.73;106598;1311;22928;-92
2022/10/12 08:13:47;;;;;;;19.40;12.40;;;;;;;9.96;95.86;98885.31;106685;1309;22189;-92
2022/10/12 08:16:18;;;;;;;18.50;12.20;;;;;;;10.09;95.45;98883.63;106694;1310;22830;-92
2022/10/12 08:18:46;;;;;;;14.00;9.90;;;;;;;10.24;95.43;98881.20;106950;1306;22266;-91
2022/10/12 08:21:15;;;;;;;15.20;9.80;;;;;;;10.36;94.81;98880.38;107046;1283;22469;-92
2022/10/12 08:23:44;;;;;;;14.20;8.60;;;;;;;10.46;94.61;98883.75;107060;1293;22917;-93
2022/10/12 08:26:13;;;;;;;18.50;8.20;;;;;;;10.57;94.80;98882.59;106765;1309;23319;-93
2022/10/12 08:28:42;;;;;;;13.20;7.30;;;;;;;10.69;94.73;98880.56;106573;1310;22167;-92
2022/10/12 08:31:12;;;;;;;13.30;7.50;;;;;;;10.81;94.31;98879.70;106953;1288;22629;-92
2022/10/12 08:33:40;;;;;;;11.00;6.70;;;;;;;10.95;93.55;98881.74;106721;1310;22188;-92
2022/10/12 08:36:10;;;;;;;21.60;15.50;;;;;;;11.09;93.48;98881.30;106957;1306;22259;-92
2022/10/12 08:38:38;;;;;;;18.90;11.40;;;;;;;11.24;92.99;98885.31;106660;1309;22195;-89
2022/10/12 08:41:22;;;;;;;14.70;7.50;;;;;;;11.37;92.35;98887.18;106938;1294;22753;-89
2022/10/12 08:44:05;;;;;;;13.40;6.90;;;;;;;11.48;91.46;98886.86;107008;1287;22334;-89
2022/10/12 08:46:33;;;;;;;13.00;7.00;;;;;;;11.60;91.68;98885.64;106774;1309;22820;-92
2022/10/12 08:49:28;;;;;;;15.60;8.00;;;;;;;11.69;90.74;98885.83;106903;1290;22249;-92
2022/10/12 08:51:58;;;;;;;;;;;;;;;11.75;90.35;98887.89;106707;1310;22388;-90
2022/10/12 08:54:30;;;;;;;11.20;6.00;;;;;;;11.83;90.56;98889.25;106557;1311;22241;-89
2022/10/12 08:56:58;;;;;;;18.00;6.50;;;;;;;11.97;90.68;98895.14;106901;1296;22835;-91
2022/10/12 08:59:28;;;;;;;17.00;7.40;;;;;;;12.08;89.64;98896.02;106741;1310;22105;-91
2022/10/12 09:02:12;;;;;;;14.60;6.50;;;;;;;12.15;87.74;98894.23;106574;1297;22245;-90
2022/10/12 09:04:55;;;;;;;14.30;6.40;;;;;;;12.23;88.47;98889.35;106678;1310;22161;-92
2022/10/12 09:07:49;;;;;;;12.30;6.00;;;;;;;12.38;87.97;98891.86;106664;1310;22846;-91
2022/10/12 09:10:45;;;;;;;9.50;5.00;;;;;;;12.50;86.47;98897.35;106637;1310;22094;-90
2022/10/12 09:13:38;;;;;;;16.60;6.30;;;;;;;12.56;85.46;98896.14;106790;1302;22160;-90
2022/10/12 09:16:22;;;;;;;11.60;7.60;;;;;;;12.66;85.46;98889.55;107003;1302;22109;-91
2022/10/12 09:18:53;;;;;;;14.70;6.10;;;;;;;12.76;85.03;98891.00;107013;1302;22248;-92
2022/10/12 09:21:24;;;;;;;14.70;5.60;;;;;;;12.89;85.13;98890.74;106734;1309;22752;-92
2022/10/12 09:23:55;;;;;;;11.80;5.80;;;;;;;12.99;83.27;98884.17;106970;1302;22144;-92
2022/10/12 09:26:35;;;;;;;10.60;5.30;;;;;;;13.08;82.57;98883.24;107017;1288;22206;-90
2022/10/12 09:29:25;;;;;;;13.50;6.00;;;;;;;13.17;81.00;98881.50;107065;1302;22153;-92
2022/10/12 09:32:14;;;;;;;11.60;5.50;;;;;;;13.27;81.38;98879.01;106749;1307;22272;-92
2022/10/12 09:34:44;;;;;;;14.80;8.90;;;;;;;13.29;79.12;98881.21;106799;1309;23018;-93
2022/10/12 09:37:22;;;;;;;11.80;5.40;;;;;;;13.37;78.49;98881.85;106770;1309;22146;-93
2022/10/12 09:39:50;;;;;;;11.60;4.60;;;;;;;13.43;76.77;98882.05;106768;1308;22212;-91
2022/10/12 09:42:18;;;;;;;9.50;4.00;;;;;;;13.45;76.08;98877.62;107015;1302;22155;-89
2022/10/12 09:45:11;;;;;;;11.40;5.10;;;;;;;13.45;75.29;98882.91;107097;1302;22178;-93
2022/10/12 09:47:39;;;;;;;11.10;4.60;;;;;;;13.55;75.71;98882.40;106925;1302;22159;-91
2022/10/12 09:50:07;;;;;;;10.30;4.10;;;;;;;13.64;75.32;98885.20;106956;1302;22063;-92
2022/10/12 09:52:35;;;;;;;9.80;4.00;;;;;;;13.76;74.62;98885.00;106982;1302;22153;-92
2022/10/12 09:55:15;;;;;;;11.80;4.10;;;;;;;13.83;72.80;98883.80;106888;1294;22175;-91
2022/10/12 09:57:53;;;;;;;8.70;4.60;;;;;;;13.88;72.43;98887.20;107027;1302;22891;-94
2022/10/12 10:00:31;;;;;;;10.00;3.90;;;;;;;13.92;72.33;98885.77;106977;1301;22140;-93
2022/10/12 10:03:01;;;;;;;12.10;5.60;;;;;;;14.01;71.57;98882.38;106968;1302;22159;-91
2022/10/12 10:05:29;;;;;;;11.30;4.50;;;;;;;14.11;71.82;98882.20;106531;1310;136387;-90
2022/10/12 10:08:19;;;;;;;315.30;35.60;;;;;;;14.19;71.56;98873.60;106711;1308;22177;-92
2022/10/12 10:10:49;;;;;;;17.60;5.40;;;;;;;14.31;70.31;98870.19;106718;1309;22202;-87
2022/10/12 10:13:18;;;;;;;14.90;5.70;;;;;;;14.42;71.39;98868.45;106598;1310;22190;-89
2022/10/12 10:15:49;;;;;;;281.10;28.90;;;;;;;14.59;71.23;98867.37;106557;1310;22156;-92
2022/10/12 10:18:24;;;;;;;60.40;10.70;;;;;;;14.73;68.87;98867.34;106754;1297;22774;-87
2022/10/12 10:20:54;;;;;;;20.50;6.10;;;;;;;14.83;68.81;98865.90;106904;1303;22142;-92
2022/10/12 10:23:27;;;;;;;13.40;4.50;;;;;;;14.90;68.08;98868.36;106989;1287;23173;-90
2022/10/12 10:25:57;;;;;;;13.00;5.00;;;;;;;15.03;68.72;98865.59;106948;1297;22183;-91
2022/10/12 10:28:29;;;;;;;11.30;5.00;;;;;;;15.16;66.80;98870.19;106739;1309;22435;-90
2022/10/12 10:31:01;;;;;;;16.90;5.30;;;;;;;15.24;67.34;98868.51;106545;1310;22144;-92
2022/10/12 10:33:32;;;;;;;16.30;6.10;;;;;;;15.22;66.61;98866.31;106653;1309;22191;-91
2022/10/12 10:36:12;;;;;;;18.40;5.80;;;;;;;15.25;66.14;98868.64;106488;1309;22370;-91
2022/10/12 10:38:54;;;;;;;16.60;5.70;;;;;;;15.26;64.39;98861.52;106529;1307;22835;-90
2022/10/12 10:41:27;;;;;;;13.40;4.60;;;;;;;15.24;64.68;98864.70;106661;1309;22212;-92
2022/10/12 10:43:55;;;;;;;12.20;5.40;;;;;;;15.33;65.26;98865.33;106793;1302;22191;-91
2022/10/12 10:46:26;;;;;;;10.00;5.30;;;;;;;15.37;64.65;98863.10;106510;1307;22251;-91
2022/10/12 10:49:05;;;;;;;9.60;4.10;;;;;;;15.41;64.88;98859.09;106724;1309;22263;-91
2022/10/12 10:51:48;;;;;;;16.90;6.20;;;;;;;15.43;62.60;98864.33;106923;1297;22054;-92
2022/10/12 10:54:21;;;;;;;10.00;4.60;;;;;;;15.44;61.71;98863.21;107047;1298;22839;-91
2022/10/12 10:57:01;;;;;;;15.90;5.70;;;;;;;15.40;61.93;98863.77;106819;1309;22190;-92
2022/10/12 10:59:58;;;;;;;9.20;4.50;;;;;;;15.41;63.11;98861.34;106871;1297;22164;-91
2022/10/12 11:02:49;;;;;;;8.50;4.80;;;;;;;15.51;62.49;98859.21;107031;1288;22216;-91
2022/10/12 11:05:27;;;;;;;9.10;4.40;;;;;;;15.62;61.66;98853.90;106958;1297;22143;-92
2022/10/12 11:08:05;;;;;;;9.30;4.50;;;;;;;15.79;61.60;98854.04;106730;1309;22196;-90
2022/10/12 11:10:43;;;;;;;11.00;4.80;;;;;;;15.87;59.12;98854.16;106780;1300;22905;-90
2022/10/12 11:13:18;;;;;;;7.60;4.40;;;;;;;15.86;59.95;98852.53;106719;1305;22144;-91
2022/10/12 11:16:06;;;;;;;13.10;5.40;;;;;;;15.96;59.86;98851.13;106793;1304;22065;-89
2022/10/12 11:18:41;;;;;;;12.60;4.70;;;;;;;16.04;59.96;98849.40;107260;1283;22290;-90
2022/10/12 11:21:21;;;;;;;12.30;4.40;;;;;;;16.18;59.78;98849.70;107073;1283;22677;-93
2022/10/12 11:24:04;;;;;;;10.50;5.20;;;;;;;16.25;57.88;98851.40;106574;1309;22196;-92
2022/10/12 11:26:55;;;;;;;11.30;5.50;;;;;;;16.23;56.61;98846.62;106532;1310;22985;-92
2022/10/12 11:29:23;;;;;;;11.20;4.20;;;;;;;16.29;58.63;98844.89;106611;1309;22798;-92
2022/10/12 11:31:58;;;;;;;9.80;4.80;;;;;;;16.49;58.58;98844.61;106713;1309;22766;-92
2022/10/12 11:34:31;;;;;;;20.20;5.60;;;;;;;16.66;58.96;98844.70;106585;1309;22789;-89
2022/10/12 11:37:01;;;;;;;13.70;5.00;;;;;;;16.84;58.05;98840.98;106633;1308;22834;-91
2022/10/12 11:39:53;;;;;;;13.80;5.80;;;;;;;16.92;57.64;98835.97;106866;1302;22073;-92
2022/10/12 11:42:31;;;;;;;15.00;7.40;;;;;;;17.01;56.27;98834.65;106665;1294;22164;-91
2022/10/12 11:45:04;;;;;;;13.40;7.80;;;;;;;17.07;56.66;98831.64;106572;1309;22208;-86